createdAt,value
2023-02-15T00:00:25.936Z,95.83
2023-02-15T00:03:17.778Z,95.90
2023-02-15T00:05:46.141Z,95.96
2023-02-15T00:08:14.491Z,96.16
2023-02-15T00:10:43.125Z,96.26
2023-02-15T00:13:11.619Z,96.10
2023-02-15T00:15:39.940Z,96.35
2023-02-15T00:18:08.362Z,96.39
2023-02-15T00:20:36.707Z,96.38
2023-02-15T00:23:04.997Z,96.32
2023-02-15T00:25:33.409Z,96.22
2023-02-15T00:28:01.728Z,96.21
2023-02-15T00:30:30.131Z,96.40
2023-02-15T00:32:58.541Z,96.42
2023-02-15T00:35:26.872Z,96.40
2023-02-15T00:37:55.278Z,96.37
2023-02-15T00:40:23.690Z,96.33
2023-02-15T00:42:52.034Z,96.38
2023-02-15T00:45:22.238Z,96.24
2023-02-15T00:47:50.658Z,96.34
2023-02-15T00:50:18.974Z,96.28
2023-02-15T00:52:47.296Z,96.20
2023-02-15T00:55:15.640Z,95.96
2023-02-15T00:57:43.951Z,95.99
2023-02-15T01:00:13.413Z,95.96
2023-02-15T01:02:41.795Z,96.11
2023-02-15T01:05:10.258Z,96.07
2023-02-15T01:07:38.570Z,96.13
2023-02-15T01:10:08.592Z,96.36
2023-02-15T01:12:36.961Z,96.28
2023-02-15T01:15:05.736Z,96.51
2023-02-15T01:17:34.122Z,96.46
2023-02-15T01:20:03.024Z,96.44
2023-02-15T01:22:31.464Z,96.50
2023-02-15T01:24:59.772Z,96.45
2023-02-15T01:27:31.425Z,96.67
2023-02-15T01:29:59.772Z,96.47
2023-02-15T01:32:28.220Z,96.47
2023-02-15T01:34:56.600Z,96.80
2023-02-15T01:37:24.940Z,96.73
2023-02-15T01:39:54.571Z,97.06
2023-02-15T01:42:24.747Z,96.99
2023-02-15T01:45:02.248Z,97.15
2023-02-15T01:47:58.511Z,97.30
2023-02-15T01:50:39.664Z,97.37
2023-02-15T01:53:19.923Z,97.31
2023-02-15T01:56:00.642Z,97.38
2023-02-15T01:58:30.504Z,97.51
2023-02-15T02:01:02.046Z,97.41
2023-02-15T02:04:14.501Z,97.34
2023-02-15T02:06:42.965Z,97.48
2023-02-15T02:09:11.710Z,97.11
2023-02-15T02:11:41.640Z,96.90
2023-02-15T02:14:10.031Z,96.97
2023-02-15T02:17:12.993Z,96.67
2023-02-15T02:19:50.431Z,96.82
2023-02-15T02:23:00.017Z,96.93
2023-02-15T02:26:10.545Z,96.92
2023-02-15T02:29:24.022Z,97.29
2023-02-15T02:32:35.139Z,97.45
2023-02-15T02:35:33.953Z,97.43
2023-02-15T02:38:11.614Z,97.64
2023-02-15T02:41:01.983Z,97.78
2023-02-15T02:43:41.908Z,97.80
2023-02-15T02:46:21.492Z,97.87
2023-02-15T02:48:50.895Z,98.04
2023-02-15T02:51:22.501Z,98.01
2023-02-15T02:54:01.137Z,97.91
2023-02-15T02:56:48.761Z,98.12
2023-02-15T02:59:23.180Z,98.16
2023-02-15T03:02:14.102Z,98.14
2023-02-15T03:04:59.618Z,98.14
2023-02-15T03:07:29.820Z,98.29
2023-02-15T03:10:01.651Z,98.50
2023-02-15T03:12:37.354Z,98.69
2023-02-15T03:15:21.555Z,98.78
2023-02-15T03:17:58.662Z,98.76
2023-02-15T03:20:34.091Z,99.07
2023-02-15T03:23:18.102Z,99.37
2023-02-15T03:25:53.073Z,99.57
2023-02-15T03:28:29.841Z,99.63
2023-02-15T03:31:01.409Z,99.78
2023-02-15T03:33:30.777Z,99.90
2023-02-15T03:36:20.931Z,99.99
2023-02-15T03:38:54.130Z,99.98
2023-02-15T03:41:26.769Z,100.00
2023-02-15T03:44:07.832Z,100.00
2023-02-15T03:47:06.916Z,100.00
2023-02-15T03:50:51.491Z,100.00
2023-02-15T03:53:23.636Z,100.00
2023-02-15T03:55:55.917Z,100.00
2023-02-15T03:58:42.795Z,100.00
2023-02-15T04:01:58.177Z,100.00
2023-02-15T04:04:34.819Z,100.00
2023-02-15T04:07:06.216Z,99.96
2023-02-15T04:09:53.090Z,99.93
2023-02-15T04:12:21.766Z,100.00
2023-02-15T04:15:08.747Z,100.00
2023-02-15T04:17:38.997Z,100.00
2023-02-15T04:20:28.097Z,100.00
2023-02-15T04:23:15.139Z,100.00
2023-02-15T04:25:43.508Z,100.00
2023-02-15T04:28:11.863Z,100.00
2023-02-15T04:30:40.184Z,100.00
2023-02-15T04:33:08.616Z,100.00
2023-02-15T04:35:37.016Z,100.00
2023-02-15T04:38:05.388Z,100.00
2023-02-15T04:40:33.758Z,100.00
2023-02-15T04:43:02.154Z,100.00
2023-02-15T04:45:30.648Z,100.00
2023-02-15T04:47:59.091Z,100.00
2023-02-15T04:50:27.535Z,100.00
2023-02-15T04:52:55.902Z,100.00
2023-02-15T04:55:24.310Z,100.00
2023-02-15T04:57:52.741Z,100.00
2023-02-15T05:00:21.269Z,100.00
2023-02-15T05:02:49.592Z,100.00
2023-02-15T05:05:18.234Z,100.00
2023-02-15T05:07:46.803Z,100.00
2023-02-15T05:10:15.451Z,100.00
2023-02-15T05:12:43.839Z,100.00
2023-02-15T05:15:12.127Z,100.00
2023-02-15T05:17:40.511Z,100.00
2023-02-15T05:20:09.436Z,100.00
2023-02-15T05:22:37.912Z,100.00
2023-02-15T05:25:25.432Z,100.00
2023-02-15T05:28:12.694Z,100.00
2023-02-15T05:30:41.279Z,100.00
2023-02-15T05:33:09.957Z,100.00
2023-02-15T05:35:38.348Z,100.00
2023-02-15T05:38:06.840Z,100.00
2023-02-15T05:40:35.666Z,100.00
2023-02-15T05:43:04.039Z,100.00
2023-02-15T05:45:32.460Z,100.00
2023-02-15T05:48:00.919Z,100.00
2023-02-15T05:50:29.380Z,100.00
2023-02-15T05:52:57.722Z,100.00
2023-02-15T05:55:26.163Z,100.00
2023-02-15T05:57:54.458Z,100.00
2023-02-15T06:00:23.080Z,100.00
2023-02-15T06:02:51.363Z,100.00
2023-02-15T06:05:19.798Z,100.00
2023-02-15T06:07:48.140Z,100.00
2023-02-15T06:10:16.786Z,100.00
2023-02-15T06:12:46.139Z,100.00
2023-02-15T06:15:15.122Z,100.00
2023-02-15T06:17:43.876Z,100.00
2023-02-15T06:20:13.259Z,100.00
2023-02-15T06:22:41.638Z,100.00
2023-02-15T06:25:12.283Z,100.00
2023-02-15T06:27:43.691Z,100.00
2023-02-15T06:30:13.104Z,100.00
2023-02-15T06:32:41.973Z,100.00
2023-02-15T06:35:10.438Z,100.00
2023-02-15T06:37:39.426Z,100.00
2023-02-15T06:40:09.357Z,100.00
2023-02-15T06:42:38.052Z,100.00
2023-02-15T06:45:11.919Z,100.00
2023-02-15T06:47:40.644Z,100.00
2023-02-15T06:50:10.347Z,100.00
2023-02-15T06:52:38.852Z,100.00
2023-02-15T06:55:07.623Z,100.00
2023-02-15T06:57:36.065Z,100.00
2023-02-15T07:00:05.952Z,100.00
2023-02-15T07:02:34.585Z,100.00
2023-02-15T07:05:03.797Z,100.00
2023-02-15T07:07:34.120Z,100.00
2023-02-15T07:10:03.089Z,100.00
2023-02-15T07:12:43.811Z,100.00
2023-02-15T07:15:16.672Z,100.00
2023-02-15T07:17:45.651Z,100.00
2023-02-15T07:20:22.452Z,100.00
2023-02-15T07:22:51.610Z,100.00
2023-02-15T07:25:20.322Z,100.00
2023-02-15T07:27:48.876Z,100.00
2023-02-15T07:30:18.166Z,100.00
2023-02-15T07:33:05.990Z,100.00
2023-02-15T07:35:35.272Z,100.00
2023-02-15T07:38:03.730Z,100.00
2023-02-15T07:40:32.095Z,100.00
2023-02-15T07:43:00.553Z,100.00
2023-02-15T07:45:28.924Z,100.00
2023-02-15T07:47:57.288Z,100.00
2023-02-15T07:50:25.712Z,100.00
2023-02-15T07:52:54.217Z,100.00
2023-02-15T07:55:22.677Z,100.00
2023-02-15T07:57:51.862Z,100.00
2023-02-15T08:00:25.740Z,100.00
2023-02-15T08:03:16.232Z,100.00
2023-02-15T08:05:45.965Z,100.00
2023-02-15T08:08:30.685Z,100.00
2023-02-15T08:11:26.302Z,100.00
2023-02-15T08:14:04.678Z,100.00
2023-02-15T08:16:55.859Z,100.00
2023-02-15T08:19:28.504Z,100.00
2023-02-15T08:22:01.054Z,100.00
2023-02-15T08:24:33.551Z,100.00
2023-02-15T08:27:06.012Z,100.00
2023-02-15T08:29:36.980Z,100.00
2023-02-15T08:32:10.855Z,100.00
2023-02-15T08:34:42.725Z,100.00
2023-02-15T08:37:11.337Z,100.00
2023-02-15T08:39:39.620Z,100.00
2023-02-15T08:42:07.945Z,100.00
2023-02-15T08:44:36.279Z,100.00
2023-02-15T08:47:05.064Z,100.00
2023-02-15T08:49:33.521Z,100.00
2023-02-15T08:52:01.938Z,100.00
2023-02-15T08:54:30.636Z,100.00
2023-02-15T08:57:00.537Z,100.00
2023-02-15T08:59:28.928Z,100.00
2023-02-15T09:01:57.316Z,100.00
2023-02-15T09:04:25.651Z,100.00
2023-02-15T09:06:54.052Z,100.00
2023-02-15T09:09:23.010Z,100.00
2023-02-15T09:11:57.904Z,100.00
2023-02-15T09:14:28.417Z,100.00
2023-02-15T09:16:57.268Z,100.00
2023-02-15T09:19:26.105Z,100.00
2023-02-15T09:21:55.057Z,100.00
2023-02-15T09:24:23.598Z,100.00
2023-02-15T09:26:52.046Z,100.00
2023-02-15T09:29:21.245Z,100.00
2023-02-15T09:31:51.853Z,100.00
2023-02-15T09:34:23.064Z,100.00
2023-02-15T09:36:52.791Z,100.00
2023-02-15T09:39:25.811Z,100.00
2023-02-15T09:42:15.976Z,100.00
2023-02-15T09:44:52.749Z,99.90
2023-02-15T09:48:02.537Z,99.90
2023-02-15T09:50:44.529Z,98.78
2023-02-15T09:53:44.579Z,98.04
2023-02-15T09:56:26.652Z,97.53
2023-02-15T09:59:17.435Z,96.70
2023-02-15T10:01:57.886Z,96.22
2023-02-15T10:04:39.808Z,95.35
2023-02-15T10:07:27.319Z,94.99
2023-02-15T10:10:15.373Z,94.32
2023-02-15T10:13:03.481Z,94.41
2023-02-15T10:16:15.921Z,94.08
2023-02-15T10:19:28.740Z,93.66
2023-02-15T10:22:11.628Z,93.57
2023-02-15T10:25:05.067Z,92.75
2023-02-15T10:27:40.112Z,91.86
2023-02-15T10:30:47.475Z,91.95
2023-02-15T10:33:43.369Z,91.76
2023-02-15T10:36:41.294Z,91.11
2023-02-15T10:39:29.221Z,91.05
2023-02-15T10:42:21.147Z,90.68
2023-02-15T10:45:19.047Z,89.76
2023-02-15T10:48:17.790Z,89.41
2023-02-15T10:51:01.692Z,89.13
2023-02-15T10:53:51.606Z,88.78
2023-02-15T10:56:44.435Z,88.92
2023-02-15T10:59:24.974Z,88.84
2023-02-15T11:02:08.581Z,87.84
2023-02-15T11:04:55.569Z,87.27
2023-02-15T11:07:36.655Z,86.59
2023-02-15T11:10:32.089Z,86.03
2023-02-15T11:13:10.769Z,86.14
2023-02-15T11:16:04.424Z,86.31
2023-02-15T11:18:44.888Z,85.74
2023-02-15T11:21:27.152Z,85.16
2023-02-15T11:24:10.688Z,84.71
2023-02-15T11:26:45.586Z,84.80
2023-02-15T11:30:10.289Z,84.46
2023-02-15T11:32:42.306Z,83.60
2023-02-15T11:35:10.636Z,83.46
2023-02-15T11:38:11.130Z,83.31
2023-02-15T11:40:48.938Z,82.50
2023-02-15T11:43:41.555Z,81.69
2023-02-15T11:46:13.696Z,81.06
2023-02-15T11:48:43.463Z,81.04
2023-02-15T11:51:24.331Z,80.96
2023-02-15T11:53:53.065Z,80.59
2023-02-15T11:56:27.226Z,80.66
2023-02-15T11:58:57.253Z,80.11
2023-02-15T12:01:44.309Z,79.43
2023-02-15T12:04:25.972Z,78.88
2023-02-15T12:07:03.160Z,78.79
2023-02-15T12:09:54.968Z,78.67
2023-02-15T12:12:32.098Z,78.45
2023-02-15T12:15:05.472Z,77.84
2023-02-15T12:17:40.138Z,77.21
2023-02-15T12:20:35.504Z,77.23
2023-02-15T12:23:12.577Z,76.44
2023-02-15T12:25:52.929Z,75.92
2023-02-15T12:28:35.011Z,75.70
2023-02-15T12:31:10.721Z,75.27
2023-02-15T12:33:47.043Z,75.38
2023-02-15T12:36:20.026Z,75.48
2023-02-15T12:39:14.012Z,75.10
2023-02-15T12:41:54.971Z,74.45
2023-02-15T12:44:35.563Z,74.25
2023-02-15T12:47:06.228Z,74.64
2023-02-15T12:49:39.647Z,74.33
2023-02-15T12:52:18.923Z,73.37
2023-02-15T12:54:48.351Z,73.16
2023-02-15T12:57:27.326Z,72.78
2023-02-15T13:00:15.922Z,72.34
2023-02-15T13:02:57.752Z,72.04
2023-02-15T13:05:39.653Z,71.77
2023-02-15T13:08:32.528Z,71.38
2023-02-15T13:11:04.614Z,71.18
2023-02-15T13:13:39.814Z,70.78
2023-02-15T13:16:15.202Z,70.70
2023-02-15T13:18:46.404Z,70.56
2023-02-15T13:21:24.662Z,70.13
2023-02-15T13:24:01.333Z,69.57
2023-02-15T13:26:33.548Z,69.57
2023-02-15T13:29:13.859Z,69.57
2023-02-15T13:31:43.973Z,69.20
2023-02-15T13:34:20.782Z,69.31
2023-02-15T13:37:09.615Z,69.33
2023-02-15T13:40:03.213Z,69.42
2023-02-15T13:42:51.492Z,69.49
2023-02-15T13:45:52.139Z,69.29
2023-02-15T13:48:51.282Z,69.39
2023-02-15T13:52:01.526Z,69.00
2023-02-15T13:55:39.805Z,68.82
2023-02-15T13:58:49.187Z,69.15
2023-02-15T14:01:40.547Z,69.06
2023-02-15T14:04:46.647Z,68.77
2023-02-15T14:07:53.151Z,68.73
2023-02-15T14:10:39.565Z,68.80
2023-02-15T14:13:26.127Z,68.96
2023-02-15T14:16:22.431Z,68.80
2023-02-15T14:19:09.797Z,68.68
2023-02-15T14:22:06.075Z,68.50
2023-02-15T14:25:14.878Z,68.89
2023-02-15T14:28:11.569Z,68.06
2023-02-15T14:30:44.407Z,67.39
2023-02-15T14:33:16.443Z,67.01
2023-02-15T14:35:45.060Z,67.26
2023-02-15T14:38:27.288Z,67.12
2023-02-15T14:41:12.863Z,67.18
2023-02-15T14:44:11.957Z,67.11
2023-02-15T14:46:52.856Z,67.09
2023-02-15T14:49:29.876Z,67.04
2023-02-15T14:52:03.354Z,66.53
2023-02-15T14:54:33.671Z,66.67
2023-02-15T14:57:02.327Z,66.60
2023-02-15T14:59:33.427Z,66.66
2023-02-15T15:02:16.488Z,66.52
2023-02-15T15:05:10.567Z,66.18
2023-02-15T15:07:44.960Z,66.18
2023-02-15T15:10:18.952Z,65.64
2023-02-15T15:12:50.124Z,65.26
2023-02-15T15:15:21.484Z,64.81
2023-02-15T15:17:57.760Z,63.72
2023-02-15T15:20:52.613Z,63.39
2023-02-15T15:23:23.895Z,64.07
2023-02-15T15:25:57.696Z,64.66
2023-02-15T15:28:35.091Z,65.09
2023-02-15T15:31:31.621Z,65.36
2023-02-15T15:34:46.695Z,65.43
2023-02-15T15:38:03.204Z,64.92
2023-02-15T15:40:49.164Z,63.99
2023-02-15T15:43:47.801Z,63.85
2023-02-15T15:46:59.410Z,64.03
2023-02-15T15:49:35.738Z,64.21
2023-02-15T15:52:18.106Z,64.36
2023-02-15T15:54:53.458Z,64.63
2023-02-15T15:57:40.304Z,64.82
2023-02-15T16:00:36.256Z,65.20
2023-02-15T16:03:05.428Z,65.26
2023-02-15T16:05:40.634Z,65.50
2023-02-15T16:08:09.191Z,65.78
2023-02-15T16:10:39.009Z,66.02
2023-02-15T16:13:08.254Z,66.56
2023-02-15T16:15:47.993Z,66.98
2023-02-15T16:18:21.519Z,67.48
2023-02-15T16:20:56.732Z,67.95
2023-02-15T16:23:56.134Z,68.21
2023-02-15T16:27:00.226Z,68.61
2023-02-15T16:29:35.177Z,69.12
2023-02-15T16:32:29.059Z,69.54
2023-02-15T16:35:01.172Z,70.04
2023-02-15T16:37:36.154Z,70.42
2023-02-15T16:40:05.312Z,70.83
2023-02-15T16:42:35.738Z,71.18
2023-02-15T16:45:18.162Z,71.45
2023-02-15T16:47:54.934Z,71.87
2023-02-15T16:50:37.487Z,72.19
2023-02-15T16:53:15.139Z,72.56
2023-02-15T16:55:43.845Z,72.76
2023-02-15T16:58:18.706Z,73.01
2023-02-15T17:00:47.456Z,73.37
2023-02-15T17:03:25.967Z,73.46
2023-02-15T17:05:58.917Z,73.82
2023-02-15T17:08:45.406Z,74.12
2023-02-15T17:11:22.930Z,74.39
2023-02-15T17:14:03.671Z,74.62
2023-02-15T17:16:49.970Z,74.85
2023-02-15T17:19:51.466Z,75.29
2023-02-15T17:22:27.843Z,75.63
2023-02-15T17:25:02.331Z,75.84
2023-02-15T17:27:34.114Z,76.14
2023-02-15T17:30:18.712Z,76.50
2023-02-15T17:33:03.030Z,76.60
2023-02-15T17:35:34.416Z,76.60
2023-02-15T17:38:05.540Z,76.77
2023-02-15T17:40:36.813Z,76.91
2023-02-15T17:43:05.210Z,77.08
2023-02-15T17:45:45.333Z,76.95
2023-02-15T17:48:37.490Z,77.12
2023-02-15T17:51:12.449Z,77.47
2023-02-15T17:54:02.393Z,77.60
2023-02-15T17:56:30.759Z,78.00
2023-02-15T17:58:59.089Z,78.20
2023-02-15T18:01:46.326Z,78.47
2023-02-15T18:04:34.496Z,79.01
2023-02-15T18:07:21.706Z,79.31
2023-02-15T18:10:08.785Z,79.73
2023-02-15T18:12:38.604Z,79.84
2023-02-15T18:15:10.875Z,80.04
2023-02-15T18:17:45.802Z,80.07
2023-02-15T18:20:24.778Z,80.34
2023-02-15T18:22:53.663Z,80.34
2023-02-15T18:25:25.473Z,80.55
2023-02-15T18:27:55.396Z,80.71
2023-02-15T18:30:26.766Z,80.79
2023-02-15T18:32:57.700Z,81.19
2023-02-15T18:35:31.543Z,81.22
2023-02-15T18:38:01.831Z,81.28
2023-02-15T18:40:30.338Z,81.32
2023-02-15T18:42:58.690Z,81.31
2023-02-15T18:45:32.982Z,81.46
2023-02-15T18:48:01.685Z,81.54
2023-02-15T18:50:34.460Z,81.55
2023-02-15T18:53:06.034Z,81.60
2023-02-15T18:55:35.555Z,81.63
2023-02-15T18:58:04.217Z,81.81
2023-02-15T19:00:35.453Z,81.88
2023-02-15T19:03:03.799Z,82.01
2023-02-15T19:05:33.347Z,82.13
2023-02-15T19:08:02.813Z,82.07
2023-02-15T19:10:33.802Z,82.32
2023-02-15T19:13:02.153Z,82.56
2023-02-15T19:15:30.895Z,82.51
2023-02-15T19:17:59.279Z,82.69
2023-02-15T19:20:43.858Z,82.59
2023-02-15T19:23:19.429Z,82.59
2023-02-15T19:25:49.780Z,82.71
2023-02-15T19:28:44.980Z,82.92
2023-02-15T19:31:13.828Z,82.94
2023-02-15T19:33:42.197Z,83.02
2023-02-15T19:36:17.926Z,83.13
2023-02-15T19:38:51.828Z,83.49
2023-02-15T19:41:34.344Z,83.72
2023-02-15T19:44:02.710Z,83.94
2023-02-15T19:46:31.375Z,84.08
2023-02-15T19:48:59.888Z,84.28
2023-02-15T19:51:28.299Z,84.46
2023-02-15T19:53:57.798Z,84.76
2023-02-15T19:56:27.792Z,84.63
2023-02-15T19:58:57.824Z,84.48
2023-02-15T20:01:26.296Z,84.64
2023-02-15T20:03:55.644Z,84.80
2023-02-15T20:06:24.098Z,84.57
2023-02-15T20:08:53.464Z,85.04
2023-02-15T20:11:21.921Z,85.15
2023-02-15T20:13:50.247Z,85.29
2023-02-15T20:16:18.635Z,85.55
2023-02-15T20:18:46.960Z,85.38
2023-02-15T20:21:16.364Z,85.63
2023-02-15T20:23:45.772Z,85.67
2023-02-15T20:26:18.388Z,85.56
2023-02-15T20:28:47.200Z,85.66
2023-02-15T20:31:20.277Z,85.55
2023-02-15T20:33:49.456Z,85.27
2023-02-15T20:36:21.420Z,85.48
2023-02-15T20:38:49.942Z,85.40
2023-02-15T20:41:37.392Z,85.47
2023-02-15T20:44:22.741Z,85.79
2023-02-15T20:46:55.414Z,85.73
2023-02-15T20:49:25.883Z,85.95
2023-02-15T20:51:56.324Z,86.03
2023-02-15T20:54:33.439Z,85.84
2023-02-15T20:57:02.315Z,86.08
2023-02-15T20:59:34.387Z,86.25
2023-02-15T21:02:23.043Z,86.03
2023-02-15T21:04:51.753Z,86.22
2023-02-15T21:07:22.356Z,86.41
2023-02-15T21:09:52.355Z,86.52
2023-02-15T21:12:22.071Z,86.54
2023-02-15T21:14:50.716Z,86.56
2023-02-15T21:17:19.188Z,86.65
2023-02-15T21:19:47.562Z,86.65
2023-02-15T21:22:16.714Z,86.92
2023-02-15T21:24:51.166Z,86.77
2023-02-15T21:27:19.675Z,87.01
2023-02-15T21:29:48.069Z,86.94
2023-02-15T21:32:16.657Z,87.03
2023-02-15T21:34:45.049Z,86.93
2023-02-15T21:37:35.493Z,86.86
2023-02-15T21:40:06.988Z,86.79
2023-02-15T21:42:53.984Z,86.95
2023-02-15T21:45:40.830Z,86.81
2023-02-15T21:48:09.436Z,86.92
2023-02-15T21:50:57.079Z,86.85
2023-02-15T21:53:33.849Z,87.26
2023-02-15T21:56:06.150Z,87.16
2023-02-15T21:58:36.866Z,86.91
2023-02-15T22:01:06.102Z,86.80
2023-02-15T22:03:38.171Z,86.68
2023-02-15T22:06:06.857Z,86.96
2023-02-15T22:08:35.681Z,86.79
2023-02-15T22:11:14.588Z,87.07
2023-02-15T22:13:44.100Z,87.06
2023-02-15T22:16:23.079Z,87.15
2023-02-15T22:18:51.535Z,87.10
2023-02-15T22:21:20.869Z,87.19
2023-02-15T22:23:49.293Z,87.38
2023-02-15T22:26:24.531Z,87.28
2023-02-15T22:28:53.169Z,87.25
2023-02-15T22:31:23.382Z,87.70
2023-02-15T22:33:51.947Z,87.61
2023-02-15T22:36:30.400Z,87.65
2023-02-15T22:38:58.787Z,87.77
2023-02-15T22:41:31.199Z,87.83
2023-02-15T22:44:00.104Z,87.66
2023-02-15T22:46:28.758Z,87.55
2023-02-15T22:48:57.123Z,87.63
2023-02-15T22:51:25.594Z,87.56
2023-02-15T22:53:54.045Z,87.61
2023-02-15T22:56:37.036Z,87.72
2023-02-15T22:59:28.912Z,87.84
2023-02-15T23:01:58.072Z,87.77
2023-02-15T23:04:29.472Z,87.94
2023-02-15T23:07:00.668Z,87.86
2023-02-15T23:09:29.038Z,88.20
2023-02-15T23:11:57.411Z,88.42
2023-02-15T23:14:35.048Z,88.39
2023-02-15T23:17:03.530Z,88.30
2023-02-15T23:19:32.229Z,88.35
2023-02-15T23:22:00.681Z,88.56
2023-02-15T23:24:34.458Z,88.42
2023-02-15T23:27:21.433Z,88.54
2023-02-15T23:29:49.896Z,88.62
2023-02-15T23:32:20.392Z,88.63
2023-02-15T23:34:48.784Z,88.53
2023-02-15T23:37:17.947Z,88.56
2023-02-15T23:40:04.706Z,88.49
2023-02-15T23:42:35.312Z,88.52
2023-02-15T23:45:06.186Z,88.55
2023-02-15T23:47:54.109Z,88.55
2023-02-15T23:50:29.659Z,88.91
2023-02-15T23:52:58.727Z,88.84
2023-02-15T23:55:41.150Z,88.90
2023-02-15T23:58:21.944Z,88.87
